Polar Endurance — WDG2085 — position and weather

sailwx.info

Track history (hours):
 
Tides and Currents Weather Stations Pressure Air Temp Water Temp Dewpoint Dewpoint Depression Visibility Wind Speed Wind Dir Waves Ship Positions

Polar Endurance

Owner: Dunlap Towing Co., LaConner, WA. More information available from US FCC via Universal Licensing System and Coast Guard Vessel Documentation Center.

Last reported at 2014-Nov-29 17:30 UTC. Time now 2014-Dec-18 17:23 UTC.
Position N 47°49' W 122°24'.
Warning: this ship's position is 18 days out of date.

Length 37 m.

Type: Towing. MMSI: 303144000.

Date/timePositionNaut miles runAvg speedWind from/ knotsBaromVisibWave heightAir tempDewpointWater temp
2014-Nov-29 17:30N 47°49' W 122°24'112.7
2014-Nov-29 17:26N 47°49' W 122°25'1010.9
2014-Nov-29 16:33N 47°39' W 122°26'010.5
2014-Nov-29 16:32N 47°39' W 122°26'4 4.5
2014-Nov-29 15:33N 47°35' W 122°22'0 1.3
2014-Nov-29 15:32N 47°35' W 122°22'3 3.6
2014-Nov-29 14:33N 47°38' W 122°26'0 6.6
2014-Nov-29 14:32N 47°38' W 122°26'6 6.0
2014-Nov-29 13:34N 47°43' W 122°28'0 7.0
2014-Nov-29 13:30N 47°44' W 122°27'7 7.5
2014-Nov-29 12:34N 47°51' W 122°29'4 8.2
2014-Nov-29 12:01N 47°55' W 122°30'4 7.8
2014-Nov-29 11:33N 47°57' W 122°35'7 6.9
2014-Nov-29 10:32N 48°04' W 122°39'22 7.1
2014-Nov-29 07:30N 48°25' W 122°45'910.0
2014-Nov-29 06:34N 48°34' W 122°45'9 9.3
2014-Nov-29 05:34N 48°44' W 122°46'1010.1
2014-Nov-29 04:33N 48°49' W 122°59'10 9.9
2014-Nov-29 03:34N 48°56' W 123°10'1010.1
2014-Nov-29 02:34N 49°02' W 123°22'1010.3
2014-Nov-29 01:33N 49°09' W 123°34'1010.3
2014-Nov-29 00:34N 49°16' W 123°45'1210.3
2014-Nov-28 23:25N 49°24' W 123°58'1010.4
2014-Nov-28 22:27N 49°30' W 124°11'29 9.9
2014-Nov-28 19:30N 49°47' W 124°47'76 6.1
2014-Nov-28 07:04N 50°29' W 126°26'4 5.9
2014-Nov-28 06:28N 50°30' W 126°31'7 6.8
2014-Nov-28 05:26N 50°33' W 126°41'7 7.0
2014-Nov-28 04:24N 50°38' W 126°48'8 8.7
2014-Nov-28 03:27N 50°44' W 126°58'9 9.5
2014-Nov-28 02:33N 50°49' W 127°09'9 9.4
2014-Nov-28 01:33N 50°54' W 127°22'9 9.3
2014-Nov-28 00:33N 50°59' W 127°34'10 9.6
2014-Nov-27 23:33N 51°06' W 127°44'  
2014-Nov-25 05:33N 58°17' W 135°42'9 9.1
2014-Nov-25 04:33N 58°16' W 135°59'182 7.1
2014-Nov-24 03:00N 59°06' W 141°36'163 6.8 140 / 20 6.1 10.0
2014-Nov-23 03:00N 60°06' W 146°36'   140 / 10987.0 5.4
Track history (hours):
 
Tides and Currents Weather Stations Pressure Air Temp Water Temp Dewpoint Dewpoint Depression Visibility Wind Speed Wind Dir Waves Ship Positions

Polar Endurance

Owner: Dunlap Towing Co., LaConner, WA. More information available from US FCC via Universal Licensing System and Coast Guard Vessel Documentation Center.

Last reported at 2014-Nov-29 17:30 UTC. Time now 2014-Dec-18 17:23 UTC.
Position N 47°49' W 122°24'.
Warning: this ship's position is 18 days out of date.

Length 37 m.

Type: Towing. MMSI: 303144000.

Date/timePositionNaut miles runAvg speedWind from/ knotsBaromVisibWave heightAir tempDewpointWater temp
2014-Nov-29 17:30N 47°49' W 122°24'112.7
2014-Nov-29 17:26N 47°49' W 122°25'1010.9
2014-Nov-29 16:33N 47°39' W 122°26'010.5
2014-Nov-29 16:32N 47°39' W 122°26'4 4.5
2014-Nov-29 15:33N 47°35' W 122°22'0 1.3
2014-Nov-29 15:32N 47°35' W 122°22'3 3.6
2014-Nov-29 14:33N 47°38' W 122°26'0 6.6
2014-Nov-29 14:32N 47°38' W 122°26'6 6.0
2014-Nov-29 13:34N 47°43' W 122°28'0 7.0
2014-Nov-29 13:30N 47°44' W 122°27'7 7.5
2014-Nov-29 12:34N 47°51' W 122°29'4 8.2
2014-Nov-29 12:01N 47°55' W 122°30'4 7.8
2014-Nov-29 11:33N 47°57' W 122°35'7 6.9
2014-Nov-29 10:32N 48°04' W 122°39'22 7.1
2014-Nov-29 07:30N 48°25' W 122°45'910.0
2014-Nov-29 06:34N 48°34' W 122°45'9 9.3
2014-Nov-29 05:34N 48°44' W 122°46'1010.1
2014-Nov-29 04:33N 48°49' W 122°59'10 9.9
2014-Nov-29 03:34N 48°56' W 123°10'1010.1
2014-Nov-29 02:34N 49°02' W 123°22'1010.3
2014-Nov-29 01:33N 49°09' W 123°34'1010.3
2014-Nov-29 00:34N 49°16' W 123°45'1210.3
2014-Nov-28 23:25N 49°24' W 123°58'1010.4
2014-Nov-28 22:27N 49°30' W 124°11'29 9.9
2014-Nov-28 19:30N 49°47' W 124°47'76 6.1
2014-Nov-28 07:04N 50°29' W 126°26'4 5.9
2014-Nov-28 06:28N 50°30' W 126°31'7 6.8
2014-Nov-28 05:26N 50°33' W 126°41'7 7.0
2014-Nov-28 04:24N 50°38' W 126°48'8 8.7
2014-Nov-28 03:27N 50°44' W 126°58'9 9.5
2014-Nov-28 02:33N 50°49' W 127°09'9 9.4
2014-Nov-28 01:33N 50°54' W 127°22'9 9.3
2014-Nov-28 00:33N 50°59' W 127°34'10 9.6
2014-Nov-27 23:33N 51°06' W 127°44'  
2014-Nov-25 05:33N 58°17' W 135°42'9 9.1
2014-Nov-25 04:33N 58°16' W 135°59'182 7.1
2014-Nov-24 03:00N 59°06' W 141°36'163 6.8 140 / 20 6.1 10.0
2014-Nov-23 03:00N 60°06' W 146°36'   140 / 10987.0 5.4

Dump ship's entire track history